sensor_id;sensor_type;location;lat;lon;timestamp;pressure;altitude;pressure_sealevel;temperature;humidity
13312;BME280;34033;48.672;9.376;2022-10-31T00:03:48;99035.69;;;14.51;71.92
13312;BME280;34033;48.672;9.376;2022-10-31T00:06:15;99030.50;;;14.49;72.07
13312;BME280;34033;48.672;9.376;2022-10-31T00:08:44;99028.47;;;14.43;71.60
13312;BME280;34033;48.672;9.376;2022-10-31T00:11:10;99031.25;;;14.36;72.29
13312;BME280;34033;48.672;9.376;2022-10-31T00:13:35;99033.66;;;14.34;72.41
13312;BME280;34033;48.672;9.376;2022-10-31T00:16:01;99036.47;;;14.27;71.84
13312;BME280;34033;48.672;9.376;2022-10-31T00:18:26;99031.63;;;14.24;72.19
13312;BME280;34033;48.672;9.376;2022-10-31T00:20:59;99034.84;;;14.18;71.88
13312;BME280;34033;48.672;9.376;2022-10-31T00:23:24;99035.25;;;14.20;72.17
13312;BME280;34033;48.672;9.376;2022-10-31T00:25:49;99036.47;;;14.19;72.08
13312;BME280;34033;48.672;9.376;2022-10-31T00:28:15;99037.28;;;14.20;72.50
13312;BME280;34033;48.672;9.376;2022-10-31T00:30:40;99034.06;;;14.22;72.99
13312;BME280;34033;48.672;9.376;2022-10-31T00:33:05;99029.25;;;14.22;73.41
13312;BME280;34033;48.672;9.376;2022-10-31T00:35:31;99028.44;;;14.25;73.14
13312;BME280;34033;48.672;9.376;2022-10-31T00:37:57;99032.84;;;14.23;72.42
13312;BME280;34033;48.672;9.376;2022-10-31T00:40:22;99028.44;;;14.22;72.66
13312;BME280;34033;48.672;9.376;2022-10-31T00:42:47;99029.22;;;14.18;72.41
13312;BME280;34033;48.672;9.376;2022-10-31T00:45:13;99031.25;;;14.14;73.03
13312;BME280;34033;48.672;9.376;2022-10-31T00:47:38;99033.25;;;14.14;72.43
13312;BME280;34033;48.672;9.376;2022-10-31T00:50:05;99034.03;;;14.07;72.96
13312;BME280;34033;48.672;9.376;2022-10-31T00:52:30;99033.22;;;14.03;72.46
13312;BME280;34033;48.672;9.376;2022-10-31T00:54:56;99042.88;;;14.02;72.34
13312;BME280;34033;48.672;9.376;2022-10-31T00:57:21;99036.06;;;14.00;72.48
13312;BME280;34033;48.672;9.376;2022-10-31T00:59:46;99030.81;;;13.98;71.90
13312;BME280;34033;48.672;9.376;2022-10-31T01:02:12;99029.19;;;13.97;72.05
13312;BME280;34033;48.672;9.376;2022-10-31T01:04:37;99029.59;;;13.96;72.02
13312;BME280;34033;48.672;9.376;2022-10-31T01:07:02;99032.00;;;13.90;71.93
13312;BME280;34033;48.672;9.376;2022-10-31T01:09:28;99036.41;;;13.88;72.33
13312;BME280;34033;48.672;9.376;2022-10-31T01:11:53;99028.38;;;13.86;71.97
13312;BME280;34033;48.672;9.376;2022-10-31T01:14:18;99036.03;;;13.89;71.26
13312;BME280;34033;48.672;9.376;2022-10-31T01:16:44;99037.22;;;13.92;71.28
13312;BME280;34033;48.672;9.376;2022-10-31T01:19:09;99030.41;;;13.93;71.16
13312;BME280;34033;48.672;9.376;2022-10-31T01:21:34;99034.00;;;13.86;70.66
13312;BME280;34033;48.672;9.376;2022-10-31T01:24:00;99029.97;;;13.80;71.20
13312;BME280;34033;48.672;9.376;2022-10-31T01:26:29;99021.94;;;13.75;71.04
13312;BME280;34033;48.672;9.376;2022-10-31T01:29:00;99027.56;;;13.71;71.56
13312;BME280;34033;48.672;9.376;2022-10-31T01:31:32;99024.34;;;13.76;70.80
13312;BME280;34033;48.672;9.376;2022-10-31T01:33:58;99021.53;;;13.80;71.24
13312;BME280;34033;48.672;9.376;2022-10-31T01:36:29;99018.72;;;13.80;71.12
13312;BME280;34033;48.672;9.376;2022-10-31T01:39:03;99018.72;;;13.80;70.46
13312;BME280;34033;48.672;9.376;2022-10-31T01:41:34;99013.91;;;13.77;71.15
13312;BME280;34033;48.672;9.376;2022-10-31T01:44:02;99015.53;;;13.78;71.04
13312;BME280;34033;48.672;9.376;2022-10-31T01:46:37;99009.50;;;13.76;70.66
13312;BME280;34033;48.672;9.376;2022-10-31T01:49:24;99026.38;;;13.83;72.00
13312;BME280;34033;48.672;9.376;2022-10-31T01:52:06;99014.31;;;13.86;72.02
13312;BME280;34033;48.672;9.376;2022-10-31T01:54:38;99016.34;;;13.86;72.08
13312;BME280;34033;48.672;9.376;2022-10-31T01:57:07;99012.31;;;13.79;71.50
13312;BME280;34033;48.672;9.376;2022-10-31T01:59:36;99017.13;;;13.75;71.67
13312;BME280;34033;48.672;9.376;2022-10-31T02:02:05;99019.13;;;13.71;71.98
13312;BME280;34033;48.672;9.376;2022-10-31T02:04:31;99009.88;;;13.71;71.84
13312;BME280;34033;48.672;9.376;2022-10-31T02:07:03;99019.50;;;13.70;71.45
13312;BME280;34033;48.672;9.376;2022-10-31T02:09:31;99010.66;;;13.64;71.77
13312;BME280;34033;48.672;9.376;2022-10-31T02:11:58;99017.09;;;13.61;71.32
13312;BME280;34033;48.672;9.376;2022-10-31T02:14:26;99003.03;;;13.61;71.54
13312;BME280;34033;48.672;9.376;2022-10-31T02:16:53;98996.19;;;13.62;72.31
13312;BME280;34033;48.672;9.376;2022-10-31T02:19:36;99015.47;;;13.67;72.26
13312;BME280;34033;48.672;9.376;2022-10-31T02:28:30;99003.44;;;13.63;71.63
13312;BME280;34033;48.672;9.376;2022-10-31T02:34:03;99005.41;;;13.52;71.40
13312;BME280;34033;48.672;9.376;2022-10-31T02:36:46;99008.22;;;13.49;71.27
13312;BME280;34033;48.672;9.376;2022-10-31T02:39:30;99005.78;;;13.51;71.86
13312;BME280;34033;48.672;9.376;2022-10-31T02:42:16;99006.59;;;13.48;71.68
13312;BME280;34033;48.672;9.376;2022-10-31T02:45:14;99004.97;;;13.43;71.88
13312;BME280;34033;48.672;9.376;2022-10-31T02:47:45;99008.19;;;13.42;71.28
13312;BME280;34033;48.672;9.376;2022-10-31T02:50:30;99004.94;;;13.36;71.44
13312;BME280;34033;48.672;9.376;2022-10-31T02:52:57;99004.94;;;13.32;71.58
13312;BME280;34033;48.672;9.376;2022-10-31T02:57:48;99000.13;;;13.36;71.13
13312;BME280;34033;48.672;9.376;2022-10-31T03:00:16;99004.19;;;13.39;71.11
13312;BME280;34033;48.672;9.376;2022-10-31T03:10:55;99005.75;;;13.36;70.73
13312;BME280;34033;48.672;9.376;2022-10-31T03:13:32;99013.00;;;13.38;70.44
13312;BME280;34033;48.672;9.376;2022-10-31T03:16:13;99002.94;;;13.36;70.87
13312;BME280;34033;48.672;9.376;2022-10-31T03:18:43;99003.34;;;13.31;70.17
13312;BME280;34033;48.672;9.376;2022-10-31T03:21:14;99000.09;;;13.29;70.54
13312;BME280;34033;48.672;9.376;2022-10-31T03:23:44;99000.09;;;13.26;70.22
13312;BME280;34033;48.672;9.376;2022-10-31T03:26:12;99002.50;;;13.20;70.68
13312;BME280;34033;48.672;9.376;2022-10-31T03:28:46;99000.47;;;13.17;70.74
13312;BME280;34033;48.672;9.376;2022-10-31T03:31:16;99007.66;;;13.15;70.39
13312;BME280;34033;48.672;9.376;2022-10-31T03:33:43;99003.28;;;13.17;70.82
13312;BME280;34033;48.672;9.376;2022-10-31T03:36:12;98998.44;;;13.14;70.77
13312;BME280;34033;48.672;9.376;2022-10-31T03:38:40;99003.22;;;13.10;70.76
13312;BME280;34033;48.672;9.376;2022-10-31T03:41:07;99005.59;;;13.08;71.20
13312;BME280;34033;48.672;9.376;2022-10-31T03:43:38;98997.56;;;13.07;71.13
13312;BME280;34033;48.672;9.376;2022-10-31T03:46:05;99009.22;;;13.05;70.88
13312;BME280;34033;48.672;9.376;2022-10-31T03:48:31;99009.59;;;13.07;71.47
13312;BME280;34033;48.672;9.376;2022-10-31T03:51:05;99008.41;;;13.08;70.61
13312;BME280;34033;48.672;9.376;2022-10-31T03:53:39;99000.78;;;13.05;70.27
13312;BME280;34033;48.672;9.376;2022-10-31T03:56:21;99002.34;;;12.99;71.19
13312;BME280;34033;48.672;9.376;2022-10-31T03:58:56;98997.13;;;12.98;70.97
13312;BME280;34033;48.672;9.376;2022-10-31T04:01:24;98998.75;;;12.99;70.38
13312;BME280;34033;48.672;9.376;2022-10-31T04:03:51;98993.13;;;12.95;70.00
13312;BME280;34033;48.672;9.376;2022-10-31T04:06:18;98999.13;;;12.90;70.25
13312;BME280;34033;48.672;9.376;2022-10-31T04:08:49;98995.88;;;12.88;70.26
13312;BME280;34033;48.672;9.376;2022-10-31T04:11:18;99000.69;;;12.84;70.88
13312;BME280;34033;48.672;9.376;2022-10-31T04:13:45;98999.06;;;12.83;70.17
13312;BME280;34033;48.672;9.376;2022-10-31T04:16:12;98993.06;;;12.84;71.03
13312;BME280;34033;48.672;9.376;2022-10-31T04:18:39;99003.88;;;12.86;70.57
13312;BME280;34033;48.672;9.376;2022-10-31T04:21:06;99000.25;;;12.85;70.43
13312;BME280;34033;48.672;9.376;2022-10-31T04:23:33;98998.25;;;12.86;71.09
13312;BME280;34033;48.672;9.376;2022-10-31T04:25:59;98993.84;;;12.85;70.73
13312;BME280;34033;48.672;9.376;2022-10-31T04:28:24;99001.47;;;12.84;70.61
13312;BME280;34033;48.672;9.376;2022-10-31T04:30:50;98999.88;;;12.87;70.37
13312;BME280;34033;48.672;9.376;2022-10-31T04:33:15;98996.31;;;12.90;70.58
13312;BME280;34033;48.672;9.376;2022-10-31T04:35:41;98996.69;;;12.92;69.62
13312;BME280;34033;48.672;9.376;2022-10-31T04:38:06;98988.28;;;12.92;69.58
13312;BME280;34033;48.672;9.376;2022-10-31T04:40:32;98986.22;;;12.85;69.49
13312;BME280;34033;48.672;9.376;2022-10-31T04:42:57;98988.66;;;12.83;69.36
13312;BME280;34033;48.672;9.376;2022-10-31T04:45:22;98982.19;;;12.79;69.71
13312;BME280;34033;48.672;9.376;2022-10-31T04:47:48;98991.81;;;12.78;69.25
13312;BME280;34033;48.672;9.376;2022-10-31T04:50:13;98986.19;;;12.75;69.72
13312;BME280;34033;48.672;9.376;2022-10-31T04:52:42;98984.16;;;12.72;70.13
13312;BME280;34033;48.672;9.376;2022-10-31T04:55:09;98972.91;;;12.68;70.01
13312;BME280;34033;48.672;9.376;2022-10-31T04:57:46;98962.91;;;12.67;70.18
13312;BME280;34033;48.672;9.376;2022-10-31T05:00:14;98969.66;;;12.63;69.99
13312;BME280;34033;48.672;9.376;2022-10-31T05:02:47;98977.69;;;12.61;69.47
13312;BME280;34033;48.672;9.376;2022-10-31T05:05:15;98968.47;;;12.60;69.91
13312;BME280;34033;48.672;9.376;2022-10-31T05:07:42;98967.66;;;12.63;69.46
13312;BME280;34033;48.672;9.376;2022-10-31T05:10:09;98965.28;;;12.62;69.57
13312;BME280;34033;48.672;9.376;2022-10-31T05:12:35;98962.03;;;12.60;69.91
13312;BME280;34033;48.672;9.376;2022-10-31T05:15:01;98966.44;;;12.57;69.61
13312;BME280;34033;48.672;9.376;2022-10-31T05:17:26;98962.81;;;12.53;70.11
13312;BME280;34033;48.672;9.376;2022-10-31T05:19:51;98959.19;;;12.52;70.00
13312;BME280;34033;48.672;9.376;2022-10-31T05:22:17;98963.59;;;12.50;70.73
13312;BME280;34033;48.672;9.376;2022-10-31T05:24:42;98969.19;;;12.50;70.73
13312;BME280;34033;48.672;9.376;2022-10-31T05:27:07;98958.38;;;12.48;70.81
13312;BME280;34033;48.672;9.376;2022-10-31T05:29:32;98958.00;;;12.50;70.83
13312;BME280;34033;48.672;9.376;2022-10-31T05:31:59;98952.75;;;12.48;71.03
13312;BME280;34033;48.672;9.376;2022-10-31T05:34:24;98949.97;;;12.48;70.76
13312;BME280;34033;48.672;9.376;2022-10-31T05:36:49;98951.94;;;12.48;70.33
13312;BME280;34033;48.672;9.376;2022-10-31T05:39:14;98951.16;;;12.47;69.86
13312;BME280;34033;48.672;9.376;2022-10-31T05:41:40;98952.34;;;12.46;69.68
13312;BME280;34033;48.672;9.376;2022-10-31T05:44:05;98948.34;;;12.47;70.02
13312;BME280;34033;48.672;9.376;2022-10-31T05:46:30;98945.16;;;12.45;69.70
13312;BME280;34033;48.672;9.376;2022-10-31T05:48:56;98952.75;;;12.45;69.36
13312;BME280;34033;48.672;9.376;2022-10-31T05:51:21;98957.13;;;12.42;70.72
13312;BME280;34033;48.672;9.376;2022-10-31T05:53:46;98945.53;;;12.44;70.50
13312;BME280;34033;48.672;9.376;2022-10-31T05:56:12;98945.09;;;12.42;70.47
13312;BME280;34033;48.672;9.376;2022-10-31T05:58:38;98952.31;;;12.39;70.21
13312;BME280;34033;48.672;9.376;2022-10-31T06:01:03;98948.66;;;12.35;70.09
13312;BME280;34033;48.672;9.376;2022-10-31T06:03:28;98943.47;;;12.34;70.40
13312;BME280;34033;48.672;9.376;2022-10-31T06:05:54;98945.41;;;12.26;70.04
13312;BME280;34033;48.672;9.376;2022-10-31T06:08:19;98957.00;;;12.25;70.03
13312;BME280;34033;48.672;9.376;2022-10-31T06:10:44;98954.59;;;12.23;70.38
13312;BME280;34033;48.672;9.376;2022-10-31T06:13:09;98949.38;;;12.25;70.41
13312;BME280;34033;48.672;9.376;2022-10-31T06:15:35;98949.38;;;12.25;70.42
13312;BME280;34033;48.672;9.376;2022-10-31T06:18:02;98947.00;;;12.27;70.42
13312;BME280;34033;48.672;9.376;2022-10-31T06:20:28;98953.88;;;12.33;70.08
13312;BME280;34033;48.672;9.376;2022-10-31T06:22:53;98949.50;;;12.39;70.04
13312;BME280;34033;48.672;9.376;2022-10-31T06:25:18;98949.94;;;12.45;70.00
13312;BME280;34033;48.672;9.376;2022-10-31T06:27:44;98949.16;;;12.48;69.49
13312;BME280;34033;48.672;9.376;2022-10-31T06:30:09;98942.78;;;12.51;69.33
13312;BME280;34033;48.672;9.376;2022-10-31T06:32:35;98947.56;;;12.50;69.12
13312;BME280;34033;48.672;9.376;2022-10-31T06:35:00;98944.34;;;12.48;69.35
13312;BME280;34033;48.672;9.376;2022-10-31T06:37:25;98942.72;;;12.47;69.68
13312;BME280;34033;48.672;9.376;2022-10-31T06:39:51;98949.56;;;12.50;70.40
13312;BME280;34033;48.672;9.376;2022-10-31T06:42:16;98956.44;;;12.56;70.36
13312;BME280;34033;48.672;9.376;2022-10-31T06:44:42;98957.63;;;12.59;70.65
13312;BME280;34033;48.672;9.376;2022-10-31T06:47:07;98962.88;;;12.64;69.96
13312;BME280;34033;48.672;9.376;2022-10-31T06:49:33;98958.88;;;12.65;70.25
13312;BME280;34033;48.672;9.376;2022-10-31T06:51:58;98957.69;;;12.66;70.50
13312;BME280;34033;48.672;9.376;2022-10-31T06:54:23;98959.69;;;12.69;70.63
13312;BME280;34033;48.672;9.376;2022-10-31T06:56:49;98958.75;;;13.19;87.89
13312;BME280;34033;48.672;9.376;2022-10-31T06:59:15;98966.56;;;14.22;100.00
13312;BME280;34033;48.672;9.376;2022-10-31T07:01:40;98949.69;;;14.18;87.53
13312;BME280;34033;48.672;9.376;2022-10-31T07:04:05;98958.94;;;14.04;78.12
13312;BME280;34033;48.672;9.376;2022-10-31T07:06:31;98950.50;;;13.87;73.21
13312;BME280;34033;48.672;9.376;2022-10-31T07:08:56;98958.09;;;13.75;71.14
13312;BME280;34033;48.672;9.376;2022-10-31T07:11:21;98947.66;;;13.65;70.30
13312;BME280;34033;48.672;9.376;2022-10-31T07:13:46;98955.22;;;13.51;69.24
13312;BME280;34033;48.672;9.376;2022-10-31T07:16:12;98951.63;;;13.40;69.76
13312;BME280;34033;48.672;9.376;2022-10-31T07:18:39;98952.41;;;13.40;69.64
13312;BME280;34033;48.672;9.376;2022-10-31T07:21:04;98958.88;;;13.62;78.50
13312;BME280;34033;48.672;9.376;2022-10-31T07:23:30;98959.28;;;13.64;72.21
13312;BME280;34033;48.672;9.376;2022-10-31T07:25:56;98948.88;;;13.75;70.78
13312;BME280;34033;48.672;9.376;2022-10-31T07:28:21;98949.69;;;13.75;69.73
13312;BME280;34033;48.672;9.376;2022-10-31T07:30:54;98951.28;;;13.69;70.42
13312;BME280;34033;48.672;9.376;2022-10-31T07:33:20;98950.50;;;13.87;73.76
13312;BME280;34033;48.672;9.376;2022-10-31T07:35:46;98958.53;;;13.95;71.40
13312;BME280;34033;48.672;9.376;2022-10-31T07:38:13;98960.16;;;14.00;70.25
13312;BME280;34033;48.672;9.376;2022-10-31T07:40:39;98956.53;;;14.10;69.86
13312;BME280;34033;48.672;9.376;2022-10-31T07:43:05;98949.72;;;14.22;70.08
13312;BME280;34033;48.672;9.376;2022-10-31T07:45:31;98941.28;;;14.14;69.12
13312;BME280;34033;48.672;9.376;2022-10-31T07:47:56;98946.50;;;14.09;69.30
13312;BME280;34033;48.672;9.376;2022-10-31T07:50:27;98942.84;;;14.01;69.09
13312;BME280;34033;48.672;9.376;2022-10-31T07:53:03;98937.25;;;14.15;70.68
13312;BME280;34033;48.672;9.376;2022-10-31T07:55:29;98945.28;;;14.20;69.96
13312;BME280;34033;48.672;9.376;2022-10-31T07:57:59;98952.91;;;14.24;69.39
13312;BME280;34033;48.672;9.376;2022-10-31T08:00:25;98945.28;;;14.20;69.20
13312;BME280;34033;48.672;9.376;2022-10-31T08:02:58;98943.25;;;14.25;69.58
13312;BME280;34033;48.672;9.376;2022-10-31T08:05:24;98947.28;;;14.24;69.29
13312;BME280;34033;48.672;9.376;2022-10-31T08:07:49;98944.09;;;14.22;69.20
13312;BME280;34033;48.672;9.376;2022-10-31T08:10:15;98936.84;;;14.24;70.04
13312;BME280;34033;48.672;9.376;2022-10-31T08:12:40;98944.50;;;14.38;71.82
13312;BME280;34033;48.672;9.376;2022-10-31T08:15:06;98945.66;;;14.51;72.79
13312;BME280;34033;48.672;9.376;2022-10-31T08:17:35;98937.22;;;14.65;71.13
13312;BME280;34033;48.672;9.376;2022-10-31T08:20:01;98939.56;;;14.88;71.00
13312;BME280;34033;48.672;9.376;2022-10-31T08:22:26;98932.69;;;14.89;70.10
13312;BME280;34033;48.672;9.376;2022-10-31T08:24:51;98942.00;;;14.82;69.29
13312;BME280;34033;48.672;9.376;2022-10-31T08:27:17;98940.81;;;14.76;69.47
13312;BME280;34033;48.672;9.376;2022-10-31T08:29:42;98941.59;;;14.73;69.27
13312;BME280;34033;48.672;9.376;2022-10-31T08:32:07;98935.59;;;14.68;69.44
13312;BME280;34033;48.672;9.376;2022-10-31T08:34:33;98935.19;;;14.69;69.80
13312;BME280;34033;48.672;9.376;2022-10-31T08:36:58;98929.97;;;14.71;70.15
13312;BME280;34033;48.672;9.376;2022-10-31T08:39:23;98931.53;;;14.79;70.28
13312;BME280;34033;48.672;9.376;2022-10-31T08:41:49;98923.06;;;14.86;70.46
13312;BME280;34033;48.672;9.376;2022-10-31T08:44:15;98919.03;;;14.91;70.09
13312;BME280;34033;48.672;9.376;2022-10-31T08:46:41;98917.44;;;14.93;69.79
13312;BME280;34033;48.672;9.376;2022-10-31T08:49:06;98924.25;;;14.99;70.03
13312;BME280;34033;48.672;9.376;2022-10-31T08:51:31;98911.75;;;15.00;69.44
13312;BME280;34033;48.672;9.376;2022-10-31T08:53:57;98915.75;;;15.07;69.19
13312;BME280;34033;48.672;9.376;2022-10-31T08:56:23;98912.53;;;15.08;69.03
13312;BME280;34033;48.672;9.376;2022-10-31T08:58:48;98916.16;;;15.09;69.06
13312;BME280;34033;48.672;9.376;2022-10-31T09:01:14;98914.94;;;15.10;69.33
13312;BME280;34033;48.672;9.376;2022-10-31T09:03:39;98917.31;;;15.15;69.08
13312;BME280;34033;48.672;9.376;2022-10-31T09:06:05;98909.25;;;15.20;69.37
13312;BME280;34033;48.672;9.376;2022-10-31T09:08:34;98911.25;;;15.27;69.27
13312;BME280;34033;48.672;9.376;2022-10-31T09:11:01;98907.16;;;15.35;69.21
13312;BME280;34033;48.672;9.376;2022-10-31T09:13:26;98903.94;;;15.36;69.34
13312;BME280;34033;48.672;9.376;2022-10-31T09:15:52;98901.91;;;15.37;69.15
13312;BME280;34033;48.672;9.376;2022-10-31T09:18:20;98906.31;;;15.41;69.26
13312;BME280;34033;48.672;9.376;2022-10-31T09:20:47;98910.75;;;15.42;69.32
13312;BME280;34033;48.672;9.376;2022-10-31T09:23:18;98907.16;;;15.35;69.40
13312;BME280;34033;48.672;9.376;2022-10-31T09:25:44;98902.72;;;15.34;69.11
13312;BME280;34033;48.672;9.376;2022-10-31T09:28:12;98897.53;;;15.32;69.06
13312;BME280;34033;48.672;9.376;2022-10-31T09:30:37;98895.47;;;15.36;69.39
13312;BME280;34033;48.672;9.376;2022-10-31T09:33:09;98899.41;;;15.50;69.40
13312;BME280;34033;48.672;9.376;2022-10-31T09:35:35;98893.41;;;15.55;69.32
13312;BME280;34033;48.672;9.376;2022-10-31T09:38:05;98892.97;;;15.60;69.15
13312;BME280;34033;48.672;9.376;2022-10-31T09:43:12;98888.28;;;15.91;68.89
13312;BME280;34033;48.672;9.376;2022-10-31T09:45:58;98881.78;;;15.97;67.96
13312;BME280;34033;48.672;9.376;2022-10-31T09:51:06;98877.31;;;16.03;67.05
13312;BME280;34033;48.672;9.376;2022-10-31T09:53:38;98875.19;;;16.11;67.72
13312;BME280;34033;48.672;9.376;2022-10-31T09:56:11;98883.75;;;16.04;67.02
13312;BME280;34033;48.672;9.376;2022-10-31T09:58:44;98879.22;;;16.13;67.58
13312;BME280;34033;48.672;9.376;2022-10-31T10:01:21;98877.25;;;16.07;66.96
13312;BME280;34033;48.672;9.376;2022-10-31T10:03:53;98872.41;;;16.07;67.90
13312;BME280;34033;48.672;9.376;2022-10-31T10:06:27;98884.34;;;16.25;67.79
13312;BME280;34033;48.672;9.376;2022-10-31T10:08:54;98871.34;;;16.35;67.42
13312;BME280;34033;48.672;9.376;2022-10-31T10:17:38;98863.50;;;16.87;66.39
13312;BME280;34033;48.672;9.376;2022-10-31T10:20:18;98862.53;;;17.01;65.58
13312;BME280;34033;48.672;9.376;2022-10-31T10:23:35;98864.16;;;16.98;64.00
13312;BME280;34033;48.672;9.376;2022-10-31T10:28:40;98862.94;;;17.03;65.57
13312;BME280;34033;48.672;9.376;2022-10-31T10:31:23;98859.94;;;17.14;65.46
13312;BME280;34033;48.672;9.376;2022-10-31T10:34:06;98860.88;;;17.34;64.92
13312;BME280;34033;48.672;9.376;2022-10-31T10:36:46;98856.75;;;17.38;64.55
13312;BME280;34033;48.672;9.376;2022-10-31T10:39:25;98845.81;;;17.14;63.43
13312;BME280;34033;48.672;9.376;2022-10-31T10:41:51;98846.56;;;17.18;64.45
13312;BME280;34033;48.672;9.376;2022-10-31T10:44:42;98847.09;;;17.09;64.48
13312;BME280;34033;48.672;9.376;2022-10-31T10:47:36;98847.00;;;17.16;65.30
13312;BME280;34033;48.672;9.376;2022-10-31T11:00:32;98824.72;;;17.48;64.72
13312;BME280;34033;48.672;9.376;2022-10-31T11:02:59;98822.91;;;17.62;65.22
13312;BME280;34033;48.672;9.376;2022-10-31T11:08:10;98823.84;;;17.78;64.42
13312;BME280;34033;48.672;9.376;2022-10-31T11:10:36;98816.91;;;17.83;63.83
13312;BME280;34033;48.672;9.376;2022-10-31T11:13:37;98811.13;;;17.90;63.55
13312;BME280;34033;48.672;9.376;2022-10-31T11:16:09;98802.88;;;17.99;63.63
13312;BME280;34033;48.672;9.376;2022-10-31T11:18:42;98798.25;;;18.09;63.64
13312;BME280;34033;48.672;9.376;2022-10-31T11:21:21;98793.44;;;18.29;64.42
13312;BME280;34033;48.672;9.376;2022-10-31T11:23:46;98790.69;;;18.45;62.18
13312;BME280;34033;48.672;9.376;2022-10-31T11:26:21;98772.28;;;18.57;61.63
13312;BME280;34033;48.672;9.376;2022-10-31T11:28:59;98769.84;;;18.75;62.88
13312;BME280;34033;48.672;9.376;2022-10-31T11:31:25;98768.84;;;18.85;62.31
13312;BME280;34033;48.672;9.376;2022-10-31T11:34:03;98759.94;;;19.03;64.71
13312;BME280;34033;48.672;9.376;2022-10-31T11:36:38;98760.41;;;19.17;64.36
13312;BME280;34033;48.672;9.376;2022-10-31T11:39:17;98757.38;;;19.61;69.02
13312;BME280;34033;48.672;9.376;2022-10-31T11:41:44;98752.59;;;20.03;64.07
13312;BME280;34033;48.672;9.376;2022-10-31T11:44:20;98752.00;;;20.40;61.86
13312;BME280;34033;48.672;9.376;2022-10-31T11:46:48;98742.78;;;20.77;59.69
13312;BME280;34033;48.672;9.376;2022-10-31T11:49:29;98730.09;;;20.95;58.15
13312;BME280;34033;48.672;9.376;2022-10-31T11:51:58;98736.66;;;20.92;57.81
13312;BME280;34033;48.672;9.376;2022-10-31T11:54:45;98728.91;;;20.79;56.44
13312;BME280;34033;48.672;9.376;2022-10-31T11:57:33;98720.06;;;20.77;58.19
13312;BME280;34033;48.672;9.376;2022-10-31T12:00:33;98720.06;;;20.77;58.58
13312;BME280;34033;48.672;9.376;2022-10-31T12:05:55;98715.63;;;20.76;58.24
13312;BME280;34033;48.672;9.376;2022-10-31T12:08:25;98717.56;;;20.79;58.29
13312;BME280;34033;48.672;9.376;2022-10-31T12:22:10;98700.75;;;20.72;56.49
13312;BME280;34033;48.672;9.376;2022-10-31T12:30:13;98691.06;;;20.70;57.96
13312;BME280;34033;48.672;9.376;2022-10-31T12:33:03;98682.63;;;20.54;56.75
13312;BME280;34033;48.672;9.376;2022-10-31T12:35:41;98683.19;;;20.49;57.69
13312;BME280;34033;48.672;9.376;2022-10-31T12:38:42;98673.16;;;20.31;56.66
13312;BME280;34033;48.672;9.376;2022-10-31T12:43:54;98668.63;;;20.34;58.44
13312;BME280;34033;48.672;9.376;2022-10-31T12:46:31;98663.81;;;20.31;57.91
13312;BME280;34033;48.672;9.376;2022-10-31T12:52:00;98653.34;;;20.15;58.10
13312;BME280;34033;48.672;9.376;2022-10-31T12:59:44;98636.00;;;20.26;59.02
13312;BME280;34033;48.672;9.376;2022-10-31T13:02:16;98626.56;;;20.29;59.40
13312;BME280;34033;48.672;9.376;2022-10-31T13:04:50;98630.66;;;20.28;59.06
13312;BME280;34033;48.672;9.376;2022-10-31T13:07:39;98629.28;;;20.20;59.00
13312;BME280;34033;48.672;9.376;2022-10-31T13:12:37;98616.75;;;20.05;57.81
13312;BME280;34033;48.672;9.376;2022-10-31T13:15:13;98618.53;;;19.98;57.67
13312;BME280;34033;48.672;9.376;2022-10-31T13:17:44;98612.19;;;19.94;57.53
13312;BME280;34033;48.672;9.376;2022-10-31T13:23:16;98613.88;;;19.92;57.89
13312;BME280;34033;48.672;9.376;2022-10-31T13:25:47;98613.88;;;19.92;57.82
13312;BME280;34033;48.672;9.376;2022-10-31T13:29:02;98610.22;;;19.91;57.69
13312;BME280;34033;48.672;9.376;2022-10-31T13:31:18;98597.28;;;19.90;57.80
13312;BME280;34033;48.672;9.376;2022-10-31T13:33:49;98591.28;;;19.88;57.04
13312;BME280;34033;48.672;9.376;2022-10-31T13:36:33;98593.31;;;19.88;57.54
13312;BME280;34033;48.672;9.376;2022-10-31T13:42:02;98593.56;;;19.93;57.57
13312;BME280;34033;48.672;9.376;2022-10-31T13:44:30;98589.38;;;19.98;57.45
13312;BME280;34033;48.672;9.376;2022-10-31T13:47:02;98591.56;;;20.07;57.51
13312;BME280;34033;48.672;9.376;2022-10-31T13:51:53;98592.97;;;20.27;57.19
13312;BME280;34033;48.672;9.376;2022-10-31T13:54:34;98588.91;;;20.41;56.72
13312;BME280;34033;48.672;9.376;2022-10-31T13:57:00;98567.88;;;20.51;56.69
13312;BME280;34033;48.672;9.376;2022-10-31T13:59:27;98567.66;;;20.58;55.87
13312;BME280;34033;48.672;9.376;2022-10-31T14:01:58;98576.88;;;20.62;56.13
13312;BME280;34033;48.672;9.376;2022-10-31T14:04:29;98576.19;;;20.58;55.99
13312;BME280;34033;48.672;9.376;2022-10-31T14:07:09;98574.94;;;20.47;56.18
13312;BME280;34033;48.672;9.376;2022-10-31T14:09:37;98570.28;;;20.40;55.98
13312;BME280;34033;48.672;9.376;2022-10-31T14:12:07;98565.88;;;20.39;56.74
13312;BME280;34033;48.672;9.376;2022-10-31T14:14:42;98554.38;;;20.43;56.87
13312;BME280;34033;48.672;9.376;2022-10-31T14:17:17;98564.94;;;20.55;57.30
13312;BME280;34033;48.672;9.376;2022-10-31T14:19:43;98563.09;;;20.73;56.81
13312;BME280;34033;48.672;9.376;2022-10-31T14:22:20;98558.16;;;21.12;61.20
13312;BME280;34033;48.672;9.376;2022-10-31T14:24:46;98556.56;;;21.58;61.05
13312;BME280;34033;48.672;9.376;2022-10-31T14:29:49;98547.13;;;22.35;56.06
13312;BME280;34033;48.672;9.376;2022-10-31T14:32:24;98540.56;;;22.57;53.47
13312;BME280;34033;48.672;9.376;2022-10-31T14:34:54;98536.69;;;22.72;51.82
13312;BME280;34033;48.672;9.376;2022-10-31T14:46:17;98530.25;;;22.99;50.06
13312;BME280;34033;48.672;9.376;2022-10-31T14:51:39;98531.91;;;22.69;49.63
13312;BME280;34033;48.672;9.376;2022-10-31T14:54:07;98534.31;;;22.40;49.27
13312;BME280;34033;48.672;9.376;2022-10-31T14:56:37;98531.69;;;22.15;50.14
13312;BME280;34033;48.672;9.376;2022-10-31T14:59:08;98530.31;;;21.97;50.90